sensor_id;sensor_type;location;lat;lon;timestamp;pressure;altitude;pressure_sealevel;temperature;humidity
55263;BME280;41125;48.752;9.168;2023-12-29T00:00:03;96897.59;;;7.75;94.88
55263;BME280;41125;48.752;9.168;2023-12-29T00:00:34;96913.78;;;7.80;94.54
55263;BME280;41125;48.752;9.168;2023-12-29T00:01:05;96902.16;;;7.85;93.90
55263;BME280;41125;48.752;9.168;2023-12-29T00:01:37;96898.37;;;7.86;93.76
55263;BME280;41125;48.752;9.168;2023-12-29T00:02:08;96901.63;;;7.88;93.67
55263;BME280;41125;48.752;9.168;2023-12-29T00:02:40;96904.59;;;7.91;93.28
55263;BME280;41125;48.752;9.168;2023-12-29T00:03:11;96906.47;;;7.91;93.11
55263;BME280;41125;48.752;9.168;2023-12-29T00:03:42;96895.41;;;7.92;93.09
55263;BME280;41125;48.752;9.168;2023-12-29T00:04:14;96892.97;;;7.91;92.91
55263;BME280;41125;48.752;9.168;2023-12-29T00:04:56;96898.66;;;7.89;93.21
55263;BME280;41125;48.752;9.168;2023-12-29T00:05:27;96891.09;;;7.86;92.89
55263;BME280;41125;48.752;9.168;2023-12-29T00:06:02;96897.56;;;7.85;93.20
55263;BME280;41125;48.752;9.168;2023-12-29T00:06:33;96895.16;;;7.84;93.31
55263;BME280;41125;48.752;9.168;2023-12-29T00:07:08;96892.19;;;7.85;93.49
55263;BME280;41125;48.752;9.168;2023-12-29T00:07:40;96889.75;;;7.84;93.32
55263;BME280;41125;48.752;9.168;2023-12-29T00:08:11;96888.94;;;7.83;92.96
55263;BME280;41125;48.752;9.168;2023-12-29T00:08:43;96888.12;;;7.83;92.93
55263;BME280;41125;48.752;9.168;2023-12-29T00:09:15;96878.41;;;7.87;93.25
55263;BME280;41125;48.752;9.168;2023-12-29T00:09:47;96889.19;;;7.87;93.09
55263;BME280;41125;48.752;9.168;2023-12-29T00:10:18;96887.31;;;7.87;93.05
55263;BME280;41125;48.752;9.168;2023-12-29T00:10:49;96881.09;;;7.92;92.92
55263;BME280;41125;48.752;9.168;2023-12-29T00:11:22;96888.38;;;7.96;92.35
55263;BME280;41125;48.752;9.168;2023-12-29T00:11:53;96891.28;;;8.00;91.90
55263;BME280;41125;48.752;9.168;2023-12-29T00:12:27;96891.56;;;7.98;91.92
55263;BME280;41125;48.752;9.168;2023-12-29T00:12:59;96894.56;;;7.97;91.99
55263;BME280;41125;48.752;9.168;2023-12-29T00:13:31;96886.13;;;8.08;91.47
55263;BME280;41125;48.752;9.168;2023-12-29T00:14:02;96889.91;;;8.13;91.02
55263;BME280;41125;48.752;9.168;2023-12-29T00:14:36;96888.00;;;8.13;90.91
55263;BME280;41125;48.752;9.168;2023-12-29T00:15:08;96885.03;;;8.10;90.88
55263;BME280;41125;48.752;9.168;2023-12-29T00:15:40;96883.69;;;8.07;91.08
55263;BME280;41125;48.752;9.168;2023-12-29T00:16:11;96889.66;;;8.04;91.27
55263;BME280;41125;48.752;9.168;2023-12-29T00:16:43;96885.63;;;8.01;91.55
55263;BME280;41125;48.752;9.168;2023-12-29T00:17:17;96893.19;;;7.99;91.62
55263;BME280;41125;48.752;9.168;2023-12-29T00:17:49;96894.00;;;8.00;91.72
55263;BME280;41125;48.752;9.168;2023-12-29T00:18:20;96888.84;;;8.03;91.44
55263;BME280;41125;48.752;9.168;2023-12-29T00:18:51;96891.28;;;8.05;91.35
55263;BME280;41125;48.752;9.168;2023-12-29T00:19:23;96888.84;;;8.08;90.87
55263;BME280;41125;48.752;9.168;2023-12-29T00:19:54;96884.50;;;8.07;90.94
55263;BME280;41125;48.752;9.168;2023-12-29T00:20:25;96888.31;;;8.06;91.10
55263;BME280;41125;48.752;9.168;2023-12-29T00:20:57;96886.69;;;8.05;91.18
55263;BME280;41125;48.752;9.168;2023-12-29T00:21:28;96887.75;;;8.04;91.05
55263;BME280;41125;48.752;9.168;2023-12-29T00:22:02;96881.81;;;8.02;91.38
55263;BME280;41125;48.752;9.168;2023-12-29T00:22:34;96885.34;;;8.03;91.21
55263;BME280;41125;48.752;9.168;2023-12-29T00:23:05;96881.03;;;8.02;91.39
55263;BME280;41125;48.752;9.168;2023-12-29T00:23:36;96880.22;;;8.01;91.51
55263;BME280;41125;48.752;9.168;2023-12-29T00:24:10;96877.78;;;8.00;91.60
55263;BME280;41125;48.752;9.168;2023-12-29T00:24:42;96883.44;;;8.03;91.41
55263;BME280;41125;48.752;9.168;2023-12-29T00:25:14;96889.06;;;8.17;90.34
55263;BME280;41125;48.752;9.168;2023-12-29T00:25:45;96873.66;;;8.18;89.91
55263;BME280;41125;48.752;9.168;2023-12-29T00:26:17;96882.84;;;8.17;89.90
55263;BME280;41125;48.752;9.168;2023-12-29T00:26:48;96881.25;;;8.16;90.07
55263;BME280;41125;48.752;9.168;2023-12-29T00:27:19;96892.06;;;8.16;90.26
55263;BME280;41125;48.752;9.168;2023-12-29T00:27:51;96885.59;;;8.12;90.27
55263;BME280;41125;48.752;9.168;2023-12-29T00:28:22;96889.09;;;8.07;90.32
55263;BME280;41125;48.752;9.168;2023-12-29T00:28:54;96878.03;;;8.03;90.64
55263;BME280;41125;48.752;9.168;2023-12-29T00:29:26;96880.22;;;8.01;90.86
55263;BME280;41125;48.752;9.168;2023-12-29T00:30:03;96874.28;;;7.99;91.11
55263;BME280;41125;48.752;9.168;2023-12-29T00:30:38;96876.75;;;7.96;91.46
55263;BME280;41125;48.752;9.168;2023-12-29T00:31:16;96883.50;;;7.93;91.67
55263;BME280;41125;48.752;9.168;2023-12-29T00:31:48;96880.00;;;7.93;91.82
55263;BME280;41125;48.752;9.168;2023-12-29T00:32:19;96873.25;;;7.90;91.71
55263;BME280;41125;48.752;9.168;2023-12-29T00:32:54;96881.34;;;7.95;91.37
55263;BME280;41125;48.752;9.168;2023-12-29T00:33:25;96878.91;;;7.94;91.41
55263;BME280;41125;48.752;9.168;2023-12-29T00:33:57;96881.34;;;7.95;91.50
55263;BME280;41125;48.752;9.168;2023-12-29T00:34:28;96872.69;;;7.93;91.23
55263;BME280;41125;48.752;9.168;2023-12-29T00:35:03;96883.47;;;7.98;91.09
55263;BME280;41125;48.752;9.168;2023-12-29T00:35:37;96884.25;;;8.04;90.70
55263;BME280;41125;48.752;9.168;2023-12-29T00:36:18;96878.03;;;8.08;90.22
55263;BME280;41125;48.752;9.168;2023-12-29T00:36:51;96881.81;;;8.07;90.05
55263;BME280;41125;48.752;9.168;2023-12-29T00:37:22;96876.16;;;8.04;90.45
55263;BME280;41125;48.752;9.168;2023-12-29T00:37:54;96875.06;;;8.05;90.26
55263;BME280;41125;48.752;9.168;2023-12-29T00:38:26;96872.91;;;8.02;90.36
55263;BME280;41125;48.752;9.168;2023-12-29T00:38:59;96882.38;;;7.99;90.42
55263;BME280;41125;48.752;9.168;2023-12-29T00:39:31;96873.22;;;7.95;90.53
55263;BME280;41125;48.752;9.168;2023-12-29T00:40:10;96878.91;;;7.94;90.85
55263;BME280;41125;48.752;9.168;2023-12-29T00:40:41;96881.88;;;7.92;91.24
55263;BME280;41125;48.752;9.168;2023-12-29T00:41:12;96877.03;;;7.89;91.31
55263;BME280;41125;48.752;9.168;2023-12-29T00:41:43;96875.41;;;7.88;91.60
55263;BME280;41125;48.752;9.168;2023-12-29T00:42:15;96872.19;;;7.86;91.67
55263;BME280;41125;48.752;9.168;2023-12-29T00:42:46;96873.00;;;7.87;91.73
55263;BME280;41125;48.752;9.168;2023-12-29T00:43:17;96868.41;;;7.87;91.85
55263;BME280;41125;48.752;9.168;2023-12-29T00:43:48;96872.19;;;7.86;91.88
55263;BME280;41125;48.752;9.168;2023-12-29T00:44:20;96877.59;;;7.86;91.93
55263;BME280;41125;48.752;9.168;2023-12-29T00:44:51;96885.69;;;7.86;91.71
55263;BME280;41125;48.752;9.168;2023-12-29T00:45:22;96886.78;;;7.85;91.50
55263;BME280;41125;48.752;9.168;2023-12-29T00:45:54;96871.13;;;7.82;91.64
55263;BME280;41125;48.752;9.168;2023-12-29T00:46:26;96880.28;;;7.81;91.84
55263;BME280;41125;48.752;9.168;2023-12-29T00:46:57;96884.09;;;7.80;92.00
55263;BME280;41125;48.752;9.168;2023-12-29T00:47:28;96873.53;;;7.84;92.07
55263;BME280;41125;48.752;9.168;2023-12-29T00:48:00;96875.16;;;7.85;92.05
55263;BME280;41125;48.752;9.168;2023-12-29T00:48:32;96875.97;;;7.85;91.74
55263;BME280;41125;48.752;9.168;2023-12-29T00:49:06;96870.84;;;7.84;91.61
55263;BME280;41125;48.752;9.168;2023-12-29T00:49:40;96876.50;;;7.82;91.72
55263;BME280;41125;48.752;9.168;2023-12-29T00:50:12;96869.50;;;7.81;91.84
55263;BME280;41125;48.752;9.168;2023-12-29T00:50:43;96884.09;;;7.80;91.90
55263;BME280;41125;48.752;9.168;2023-12-29T00:51:15;96876.25;;;7.84;92.09
55263;BME280;41125;48.752;9.168;2023-12-29T00:51:47;96883.25;;;7.90;91.04
55263;BME280;41125;48.752;9.168;2023-12-29T00:52:19;96876.75;;;7.91;90.94
55263;BME280;41125;48.752;9.168;2023-12-29T00:52:50;96872.69;;;7.93;91.04
55263;BME280;41125;48.752;9.168;2023-12-29T00:53:21;96876.50;;;7.92;90.92
55263;BME280;41125;48.752;9.168;2023-12-29T00:53:52;96880.28;;;7.91;90.73
55263;BME280;41125;48.752;9.168;2023-12-29T00:54:23;96877.84;;;7.90;91.00
55263;BME280;41125;48.752;9.168;2023-12-29T00:54:55;96873.78;;;7.92;90.79
55263;BME280;41125;48.752;9.168;2023-12-29T00:55:26;96865.69;;;7.92;90.89
55263;BME280;41125;48.752;9.168;2023-12-29T00:55:59;96873.50;;;7.94;90.87
55263;BME280;41125;48.752;9.168;2023-12-29T00:56:31;96869.44;;;7.96;90.23
55263;BME280;41125;48.752;9.168;2023-12-29T00:57:02;96865.12;;;7.95;90.31
55263;BME280;41125;48.752;9.168;2023-12-29T00:57:34;96874.59;;;7.93;90.54
55263;BME280;41125;48.752;9.168;2023-12-29T00:58:05;96880.28;;;7.91;90.67
55263;BME280;41125;48.752;9.168;2023-12-29T00:58:36;96874.06;;;7.91;90.65
55263;BME280;41125;48.752;9.168;2023-12-29T00:59:08;96876.50;;;7.92;90.85
55263;BME280;41125;48.752;9.168;2023-12-29T00:59:39;96887.28;;;7.92;90.81
55263;BME280;41125;48.752;9.168;2023-12-29T01:00:15;96874.88;;;7.91;90.83
55263;BME280;41125;48.752;9.168;2023-12-29T01:00:48;96877.56;;;7.91;90.74
55263;BME280;41125;48.752;9.168;2023-12-29T01:01:20;96885.69;;;7.91;90.83
55263;BME280;41125;48.752;9.168;2023-12-29T01:01:51;96885.69;;;7.91;90.93
55263;BME280;41125;48.752;9.168;2023-12-29T01:02:22;96885.69;;;7.91;90.98
55263;BME280;41125;48.752;9.168;2023-12-29T01:02:54;96881.88;;;7.92;91.06
55263;BME280;41125;48.752;9.168;2023-12-29T01:03:25;96883.50;;;7.93;90.71
55263;BME280;41125;48.752;9.168;2023-12-29T01:03:57;96888.91;;;7.93;90.58
55263;BME280;41125;48.752;9.168;2023-12-29T01:04:28;96891.06;;;7.91;90.65
55263;BME280;41125;48.752;9.168;2023-12-29T01:04:59;96890.28;;;7.91;90.80
55263;BME280;41125;48.752;9.168;2023-12-29T01:05:30;96882.44;;;7.89;90.82
55263;BME280;41125;48.752;9.168;2023-12-29T01:06:02;96887.84;;;7.89;91.10
55263;BME280;41125;48.752;9.168;2023-12-29T01:06:33;96898.09;;;7.92;90.73
55263;BME280;41125;48.752;9.168;2023-12-29T01:07:04;96899.66;;;8.03;89.90
55263;BME280;41125;48.752;9.168;2023-12-29T01:07:36;96890.97;;;8.12;89.05
55263;BME280;41125;48.752;9.168;2023-12-29T01:08:07;96886.63;;;8.21;88.28
55263;BME280;41125;48.752;9.168;2023-12-29T01:08:38;96886.91;;;8.19;87.85
55263;BME280;41125;48.752;9.168;2023-12-29T01:09:12;96896.38;;;8.17;88.04
55263;BME280;41125;48.752;9.168;2023-12-29T01:09:44;96891.25;;;8.15;88.20
55263;BME280;41125;48.752;9.168;2023-12-29T01:10:15;96895.56;;;8.16;88.26
55263;BME280;41125;48.752;9.168;2023-12-29T01:10:46;96889.34;;;8.21;87.65
55263;BME280;41125;48.752;9.168;2023-12-29T01:11:18;96893.38;;;8.23;87.50
55263;BME280;41125;48.752;9.168;2023-12-29T01:11:49;96894.19;;;8.24;87.32
55263;BME280;41125;48.752;9.168;2023-12-29T01:12:20;96885.53;;;8.22;88.15
55263;BME280;41125;48.752;9.168;2023-12-29T01:12:51;96896.38;;;8.17;88.50
55263;BME280;41125;48.752;9.168;2023-12-29T01:13:23;96894.22;;;8.14;88.39
55263;BME280;41125;48.752;9.168;2023-12-29T01:13:54;96904.22;;;8.13;88.15
55263;BME280;41125;48.752;9.168;2023-12-29T01:14:25;96892.31;;;8.19;87.58
55263;BME280;41125;48.752;9.168;2023-12-29T01:14:56;96896.88;;;8.24;87.16
55263;BME280;41125;48.752;9.168;2023-12-29T01:15:28;96890.13;;;8.21;86.97
55263;BME280;41125;48.752;9.168;2023-12-29T01:15:59;96900.41;;;8.19;87.28
55263;BME280;41125;48.752;9.168;2023-12-29T01:16:30;96898.81;;;8.18;87.54
55263;BME280;41125;48.752;9.168;2023-12-29T01:17:02;96895.03;;;8.14;87.57
55263;BME280;41125;48.752;9.168;2023-12-29T01:17:34;96899.63;;;8.14;87.98
55263;BME280;41125;48.752;9.168;2023-12-29T01:18:05;96889.38;;;8.11;88.10
55263;BME280;41125;48.752;9.168;2023-12-29T01:18:36;96899.63;;;8.14;88.14
55263;BME280;41125;48.752;9.168;2023-12-29T01:19:07;96901.25;;;8.15;88.09
55263;BME280;41125;48.752;9.168;2023-12-29T01:19:38;96891.25;;;8.15;88.27
55263;BME280;41125;48.752;9.168;2023-12-29T01:20:10;96889.88;;;8.18;87.73
55263;BME280;41125;48.752;9.168;2023-12-29T01:20:42;96890.69;;;8.18;87.19
55263;BME280;41125;48.752;9.168;2023-12-29T01:21:13;96892.06;;;8.16;87.27
55263;BME280;41125;48.752;9.168;2023-12-29T01:21:45;96895.84;;;8.15;87.49
55263;BME280;41125;48.752;9.168;2023-12-29T01:22:16;96887.19;;;8.13;87.79
55263;BME280;41125;48.752;9.168;2023-12-29T01:22:47;96892.31;;;8.14;87.90
55263;BME280;41125;48.752;9.168;2023-12-29T01:23:18;96885.03;;;8.15;87.54
55263;BME280;41125;48.752;9.168;2023-12-29T01:23:50;96885.03;;;8.15;87.60
55263;BME280;41125;48.752;9.168;2023-12-29T01:24:23;96887.19;;;8.13;87.55
55263;BME280;41125;48.752;9.168;2023-12-29T01:24:54;96882.34;;;8.10;87.83
55263;BME280;41125;48.752;9.168;2023-12-29T01:25:25;96890.44;;;8.10;88.04
55263;BME280;41125;48.752;9.168;2023-12-29T01:25:56;96885.31;;;8.08;88.11
55263;BME280;41125;48.752;9.168;2023-12-29T01:26:27;96886.91;;;8.19;87.36
55263;BME280;41125;48.752;9.168;2023-12-29T01:26:59;96887.12;;;8.28;86.59
55263;BME280;41125;48.752;9.168;2023-12-29T01:27:30;96880.66;;;8.29;86.27
55263;BME280;41125;48.752;9.168;2023-12-29T01:28:01;96888.22;;;8.27;86.40
55263;BME280;41125;48.752;9.168;2023-12-29T01:28:32;96885.53;;;8.22;86.49
55263;BME280;41125;48.752;9.168;2023-12-29T01:29:05;96877.44;;;8.22;86.49
55263;BME280;41125;48.752;9.168;2023-12-29T01:29:37;96883.91;;;8.26;85.90
55263;BME280;41125;48.752;9.168;2023-12-29T01:30:09;96882.28;;;8.30;85.70
55263;BME280;41125;48.752;9.168;2023-12-29T01:30:40;96882.53;;;8.33;85.40
55263;BME280;41125;48.752;9.168;2023-12-29T01:31:11;96879.56;;;8.30;85.56
55263;BME280;41125;48.752;9.168;2023-12-29T01:31:44;96888.22;;;8.27;85.63
55263;BME280;41125;48.752;9.168;2023-12-29T01:32:15;96886.06;;;8.29;85.77
55263;BME280;41125;48.752;9.168;2023-12-29T01:32:46;96885.47;;;8.32;85.43
55263;BME280;41125;48.752;9.168;2023-12-29T01:33:18;96882.28;;;8.30;85.41
55263;BME280;41125;48.752;9.168;2023-12-29T01:33:50;96888.22;;;8.27;85.62
55263;BME280;41125;48.752;9.168;2023-12-29T01:34:21;96887.97;;;8.23;85.97
55263;BME280;41125;48.752;9.168;2023-12-29T01:34:53;96883.94;;;8.21;86.18
55263;BME280;41125;48.752;9.168;2023-12-29T01:35:24;96888.78;;;8.24;86.19
55263;BME280;41125;48.752;9.168;2023-12-29T01:35:55;96887.12;;;8.28;85.78
55263;BME280;41125;48.752;9.168;2023-12-29T01:36:26;96886.31;;;8.32;85.53
55263;BME280;41125;48.752;9.168;2023-12-29T01:36:58;96887.41;;;8.31;85.35
55263;BME280;41125;48.752;9.168;2023-12-29T01:37:31;96884.44;;;8.28;85.42
55263;BME280;41125;48.752;9.168;2023-12-29T01:38:03;96892.00;;;8.26;85.92
55263;BME280;41125;48.752;9.168;2023-12-29T01:38:34;96894.19;;;8.24;86.29
55263;BME280;41125;48.752;9.168;2023-12-29T01:39:06;96888.53;;;8.20;86.65
55263;BME280;41125;48.752;9.168;2023-12-29T01:39:37;96891.50;;;8.19;87.01
55263;BME280;41125;48.752;9.168;2023-12-29T01:40:11;96894.47;;;8.17;87.26
55263;BME280;41125;48.752;9.168;2023-12-29T01:40:46;96895.53;;;8.21;86.95
55263;BME280;41125;48.752;9.168;2023-12-29T01:41:20;96896.88;;;8.24;86.73
55263;BME280;41125;48.752;9.168;2023-12-29T01:41:51;96896.34;;;8.22;86.94
55263;BME280;41125;48.752;9.168;2023-12-29T01:42:23;96889.06;;;8.22;87.04
55263;BME280;41125;48.752;9.168;2023-12-29T01:42:55;96893.09;;;8.25;86.68
55263;BME280;41125;48.752;9.168;2023-12-29T01:43:27;96894.16;;;8.29;86.15
55263;BME280;41125;48.752;9.168;2023-12-29T01:44:21;96900.09;;;8.31;86.19
55263;BME280;41125;48.752;9.168;2023-12-29T01:44:54;96892.53;;;8.33;85.27
55263;BME280;41125;48.752;9.168;2023-12-29T01:45:25;96893.34;;;8.33;85.69
55263;BME280;41125;48.752;9.168;2023-12-29T01:46:01;96894.16;;;8.34;85.77
55263;BME280;41125;48.752;9.168;2023-12-29T01:46:34;96894.69;;;8.36;85.60
55263;BME280;41125;48.752;9.168;2023-12-29T01:47:13;96898.44;;;8.40;85.32
55263;BME280;41125;48.752;9.168;2023-12-29T01:47:47;96893.00;;;8.50;84.40
55263;BME280;41125;48.752;9.168;2023-12-29T01:48:19;96888.94;;;8.48;84.30
55263;BME280;41125;48.752;9.168;2023-12-29T01:48:50;96891.94;;;8.46;84.50
55263;BME280;41125;48.752;9.168;2023-12-29T01:49:22;96894.66;;;8.41;84.51
55263;BME280;41125;48.752;9.168;2023-12-29T01:49:53;96889.81;;;8.38;84.72
55263;BME280;41125;48.752;9.168;2023-12-29T01:50:25;96890.87;;;8.37;84.74
55263;BME280;41125;48.752;9.168;2023-12-29T01:50:58;96887.91;;;8.38;84.91
55263;BME280;41125;48.752;9.168;2023-12-29T01:51:30;96886.28;;;8.37;84.91
55263;BME280;41125;48.752;9.168;2023-12-29T01:52:02;96880.59;;;8.39;84.44
55263;BME280;41125;48.752;9.168;2023-12-29T01:52:34;96878.44;;;8.36;84.37
55263;BME280;41125;48.752;9.168;2023-12-29T01:53:07;96880.06;;;8.32;84.88
55263;BME280;41125;48.752;9.168;2023-12-29T01:53:38;96875.25;;;8.29;85.08
55263;BME280;41125;48.752;9.168;2023-12-29T01:54:11;96876.06;;;8.24;85.77
55263;BME280;41125;48.752;9.168;2023-12-29T01:54:44;96879.06;;;8.23;85.68
55263;BME280;41125;48.752;9.168;2023-12-29T01:55:19;96881.75;;;8.23;85.75
55263;BME280;41125;48.752;9.168;2023-12-29T01:55:52;96878.47;;;8.31;85.22
55263;BME280;41125;48.752;9.168;2023-12-29T01:56:24;96880.06;;;8.37;84.85
55263;BME280;41125;48.752;9.168;2023-12-29T01:56:57;96881.44;;;8.34;84.85
55263;BME280;41125;48.752;9.168;2023-12-29T01:57:30;96883.06;;;8.30;85.36
55263;BME280;41125;48.752;9.168;2023-12-29T01:58:06;96886.56;;;8.36;85.08
55263;BME280;41125;48.752;9.168;2023-12-29T01:58:37;96881.69;;;8.38;84.74
55263;BME280;41125;48.752;9.168;2023-12-29T01:59:09;96875.75;;;8.36;85.05
55263;BME280;41125;48.752;9.168;2023-12-29T01:59:40;96887.12;;;8.33;84.92
55263;BME280;41125;48.752;9.168;2023-12-29T02:00:13;96883.34;;;8.34;85.05
55263;BME280;41125;48.752;9.168;2023-12-29T02:00:45;96881.19;;;8.31;85.35
55263;BME280;41125;48.752;9.168;2023-12-29T02:01:17;96880.91;;;8.32;85.02
55263;BME280;41125;48.752;9.168;2023-12-29T02:01:49;96873.06;;;8.31;85.39
55263;BME280;41125;48.752;9.168;2023-12-29T02:02:21;96877.41;;;8.27;85.77
55263;BME280;41125;48.752;9.168;2023-12-29T02:02:52;96867.41;;;8.27;85.99
55263;BME280;41125;48.752;9.168;2023-12-29T02:03:24;96874.19;;;8.25;85.64
55263;BME280;41125;48.752;9.168;2023-12-29T02:03:56;96881.75;;;8.23;85.88
55263;BME280;41125;48.752;9.168;2023-12-29T02:04:28;96869.84;;;8.29;85.46
55263;BME280;41125;48.752;9.168;2023-12-29T02:04:59;96870.09;;;8.32;85.71
55263;BME280;41125;48.752;9.168;2023-12-29T02:05:33;96864.94;;;8.36;85.47
55263;BME280;41125;48.752;9.168;2023-12-29T02:06:06;96863.56;;;8.38;85.06
55263;BME280;41125;48.752;9.168;2023-12-29T02:06:40;96870.34;;;8.36;84.94
55263;BME280;41125;48.752;9.168;2023-12-29T02:07:12;96872.78;;;8.37;84.92
55263;BME280;41125;48.752;9.168;2023-12-29T02:07:43;96877.38;;;8.37;85.07
55263;BME280;41125;48.752;9.168;2023-12-29T02:08:14;96865.47;;;8.38;85.13
55263;BME280;41125;48.752;9.168;2023-12-29T02:08:47;96862.50;;;8.39;84.66
55263;BME280;41125;48.752;9.168;2023-12-29T02:09:19;96866.56;;;8.37;85.36
55263;BME280;41125;48.752;9.168;2023-12-29T02:09:51;96873.31;;;8.34;85.22
55263;BME280;41125;48.752;9.168;2023-12-29T02:10:23;96876.28;;;8.38;85.24
55263;BME280;41125;48.752;9.168;2023-12-29T02:10:55;96873.59;;;8.38;85.16
55263;BME280;41125;48.752;9.168;2023-12-29T02:11:26;96863.03;;;8.36;85.28
55263;BME280;41125;48.752;9.168;2023-12-29T02:11:58;96856.28;;;8.39;85.12
55263;BME280;41125;48.752;9.168;2023-12-29T02:12:30;96864.38;;;8.39;85.14
55263;BME280;41125;48.752;9.168;2023-12-29T02:13:01;96867.91;;;8.34;85.10
55263;BME280;41125;48.752;9.168;2023-12-29T02:13:33;96870.34;;;8.36;85.69
55263;BME280;41125;48.752;9.168;2023-12-29T02:14:06;96861.69;;;8.39;85.33
55263;BME280;41125;48.752;9.168;2023-12-29T02:14:37;96857.34;;;8.38;85.24
55263;BME280;41125;48.752;9.168;2023-12-29T02:15:09;96867.38;;;8.32;85.49
55263;BME280;41125;48.752;9.168;2023-12-29T02:15:41;96868.22;;;8.28;85.81
55263;BME280;41125;48.752;9.168;2023-12-29T02:16:18;96862.84;;;8.23;86.15
55263;BME280;41125;48.752;9.168;2023-12-29T02:17:09;96868.25;;;8.18;86.39
55263;BME280;41125;48.752;9.168;2023-12-29T02:17:50;96864.47;;;8.19;86.46
55263;BME280;41125;48.752;9.168;2023-12-29T02:18:24;96853.13;;;8.17;86.93
55263;BME280;41125;48.752;9.168;2023-12-29T02:18:57;96865.56;;;8.13;87.31
55263;BME280;41125;48.752;9.168;2023-12-29T02:19:41;96864.50;;;8.08;87.52
55263;BME280;41125;48.752;9.168;2023-12-29T02:20:17;96878.31;;;8.07;87.51
55263;BME280;41125;48.752;9.168;2023-12-29T02:20:48;96866.41;;;8.08;87.86
55263;BME280;41125;48.752;9.168;2023-12-29T02:21:23;96866.94;;;8.10;87.34
55263;BME280;41125;48.752;9.168;2023-12-29T02:21:56;96860.72;;;8.10;87.40
55263;BME280;41125;48.752;9.168;2023-12-29T02:22:27;96870.44;;;8.11;87.15
55263;BME280;41125;48.752;9.168;2023-12-29T02:22:59;96865.56;;;8.13;87.35
55263;BME280;41125;48.752;9.168;2023-12-29T02:23:31;96860.69;;;8.20;86.78
55263;BME280;41125;48.752;9.168;2023-12-29T02:24:04;96857.94;;;8.30;86.22
55263;BME280;41125;48.752;9.168;2023-12-29T02:24:35;96854.13;;;8.36;85.58
55263;BME280;41125;48.752;9.168;2023-12-29T02:25:07;96857.88;;;8.40;85.64
55263;BME280;41125;48.752;9.168;2023-12-29T02:25:39;96855.75;;;8.37;85.21
55263;BME280;41125;48.752;9.168;2023-12-29T02:26:13;96856.28;;;8.34;85.73
55263;BME280;41125;48.752;9.168;2023-12-29T02:26:50;96856.84;;;8.31;85.85
55263;BME280;41125;48.752;9.168;2023-12-29T02:27:56;96847.13;;;8.30;85.81
55263;BME280;41125;48.752;9.168;2023-12-29T02:28:29;96851.19;;;8.27;85.92
55263;BME280;41125;48.752;9.168;2023-12-29T02:29:03;96849.81;;;8.30;85.71
55263;BME280;41125;48.752;9.168;2023-12-29T02:29:38;96847.69;;;8.27;85.77
55263;BME280;41125;48.752;9.168;2023-12-29T02:30:20;96850.94;;;8.24;85.91
55263;BME280;41125;48.752;9.168;2023-12-29T02:31:01;96846.91;;;8.21;86.10
55263;BME280;41125;48.752;9.168;2023-12-29T02:31:38;96854.75;;;8.18;86.65
55263;BME280;41125;48.752;9.168;2023-12-29T02:32:14;96847.19;;;8.15;86.73
55263;BME280;41125;48.752;9.168;2023-12-29T02:32:49;96848.22;;;8.24;86.35
55263;BME280;41125;48.752;9.168;2023-12-29T02:33:25;96849.31;;;8.23;86.19
55263;BME280;41125;48.752;9.168;2023-12-29T02:33:59;96850.94;;;8.24;86.50
55263;BME280;41125;48.752;9.168;2023-12-29T02:34:32;96854.72;;;8.23;86.20
55263;BME280;41125;48.752;9.168;2023-12-29T02:35:05;96855.81;;;8.22;86.12
55263;BME280;41125;48.752;9.168;2023-12-29T02:35:42;96849.31;;;8.23;86.20
55263;BME280;41125;48.752;9.168;2023-12-29T02:36:16;96858.22;;;8.23;86.49
55263;BME280;41125;48.752;9.168;2023-12-29T02:36:49;96845.00;;;8.22;86.23
55263;BME280;41125;48.752;9.168;2023-12-29T02:37:22;96854.19;;;8.21;86.43
55263;BME280;41125;48.752;9.168;2023-12-29T02:37:58;96847.13;;;8.30;86.16
55263;BME280;41125;48.752;9.168;2023-12-29T02:38:30;96856.03;;;8.30;85.80
55263;BME280;41125;48.752;9.168;2023-12-29T02:39:03;96856.03;;;8.30;85.83
55263;BME280;41125;48.752;9.168;2023-12-29T02:39:34;96847.09;;;8.35;85.51
55263;BME280;41125;48.752;9.168;2023-12-29T02:40:07;96851.44;;;8.31;85.29
55263;BME280;41125;48.752;9.168;2023-12-29T02:40:40;96847.63;;;8.32;85.75
55263;BME280;41125;48.752;9.168;2023-12-29T02:41:11;96853.63;;;8.29;85.68
55263;BME280;41125;48.752;9.168;2023-12-29T02:41:44;96852.25;;;8.31;85.91
55263;BME280;41125;48.752;9.168;2023-12-29T02:42:15;96849.03;;;8.29;85.78
55263;BME280;41125;48.752;9.168;2023-12-29T02:42:48;96852.56;;;8.25;86.01
55263;BME280;41125;48.752;9.168;2023-12-29T02:43:19;96847.16;;;8.20;86.13
55263;BME280;41125;48.752;9.168;2023-12-29T02:43:54;96847.19;;;8.15;86.32
55263;BME280;41125;48.752;9.168;2023-12-29T02:44:25;96858.00;;;8.15;86.75
55263;BME280;41125;48.752;9.168;2023-12-29T02:44:57;96848.25;;;8.19;86.80
55263;BME280;41125;48.752;9.168;2023-12-29T02:45:28;96844.47;;;8.20;86.75
55263;BME280;41125;48.752;9.168;2023-12-29T02:46:00;96845.56;;;8.19;87.10
55263;BME280;41125;48.752;9.168;2023-12-29T02:46:31;96845.28;;;8.20;86.65
55263;BME280;41125;48.752;9.168;2023-12-29T02:47:03;96847.97;;;8.20;87.07
55263;BME280;41125;48.752;9.168;2023-12-29T02:47:35;96843.38;;;8.21;87.06
55263;BME280;41125;48.752;9.168;2023-12-29T02:48:07;96831.22;;;8.18;87.19
55263;BME280;41125;48.752;9.168;2023-12-29T02:48:38;96839.63;;;8.17;87.42
55263;BME280;41125;48.752;9.168;2023-12-29T02:49:09;96846.34;;;8.24;87.35
55263;BME280;41125;48.752;9.168;2023-12-29T02:49:43;96830.13;;;8.24;87.49
55263;BME280;41125;48.752;9.168;2023-12-29T02:50:15;96838.78;;;8.21;87.81
55263;BME280;41125;48.752;9.168;2023-12-29T02:50:46;96833.91;;;8.23;87.78
55263;BME280;41125;48.752;9.168;2023-12-29T02:51:18;96840.44;;;8.17;88.54
55263;BME280;41125;48.752;9.168;2023-12-29T02:51:49;96840.16;;;8.14;88.33
55263;BME280;41125;48.752;9.168;2023-12-29T02:52:21;96840.47;;;8.07;89.36
55263;BME280;41125;48.752;9.168;2023-12-29T02:52:52;96839.41;;;8.03;89.22
55263;BME280;41125;48.752;9.168;2023-12-29T02:53:24;96837.50;;;8.08;89.55
55263;BME280;41125;48.752;9.168;2023-12-29T02:53:55;96851.28;;;8.07;89.43
55263;BME280;41125;48.752;9.168;2023-12-29T02:54:26;96837.50;;;8.03;89.88